Leadore, Idaho
Current Conditions -  °F | °C
As of 3:15 AM on Saturday 22 Nov 2014 (Local Time) from KSMN Reporting Station
Broken Clouds Broken Clouds  
Wind Chill: 23°   Ceiling: 3200
Heat Index: 28°   Visibility: 7mi
Dew Point: 25°   Wind: 5mph
Humidity: 86%   Direction: 40°NE
Pressure: 29.63"   Gusts: NA
Location:  44.68°N, 113.36°W
Report Text: KSMN 221015Z AUTO 04004KT 7SM BKN032 BKN041 M02/M04 A2963 RMK AO1
Loading
Personal Weather Stations






























Interactive Weather Map New forecast layout! Learn more

10-Day Weather Forecast

Advertisements
Track Severe Weather on mobile